Terminal Aerodrome Forecast
Issued by NWS Cleveland, OH

Home | Current Version | Previous Version | Text Only | Print | Product List | Glossary Off
Versions: 1 2 3 4 5 6 7 8 9 10 11 12 13 14 15 16

000
FTUS41 KCLE 201443 AAB
TAFYNG
TAF AMD
KYNG 201443Z 2015/2112 08008KT P6SM OVC012
     FM201600 08008KT P6SM BKN018 OVC035
     FM201800 08010KT P6SM BKN035
     FM210900 13010KT 6SM BR VCSH BKN030=

USA.gov is the U.S. government's official web portal to all federal, state and local government web resources and services.